Time;durP1;ratioP1;P1;durP2;ratioP2;P2;SDS_P1;SDS_P2;PMS_P1;PMS_P2;Temp;Humidity;BMP_temperature;BMP_pressure;BME280_temperature;BME280_humidity;BME280_pressure;Samples;Min_cycle;Max_cycle;Signal;HPM_P1;HPM_P2
2023/12/07 00:01:01;;;;;;;;;;;0.80;99.90;;;;;;5112890;27;20499;-84
2023/12/07 00:03:26;;;;;;;;;;;0.60;99.90;;;;;;5115656;28;19928;-85
2023/12/07 00:05:53;;;;;;;;;;;0.60;99.90;;;;;;5115812;28;19928;-84
2023/12/07 00:08:18;;;;;;;;;;;0.60;99.90;;;;;;5115554;28;19931;-83
2023/12/07 00:10:44;;;;;;;;;;;0.50;99.90;;;;;;5103212;28;19923;-84
2023/12/07 00:13:09;;;;;;;;;;;0.40;99.90;;;;;;5116020;28;19968;-83
2023/12/07 00:15:35;;;;;;;;;;;0.30;99.90;;;;;;5098635;28;20278;-84
2023/12/07 00:18:02;;;;;;;;;;;0.30;99.90;;;;;;5104447;28;19930;-83
2023/12/07 00:20:28;;;;;;;;;;;0.30;99.90;;;;;;5114297;27;19924;-85
2023/12/07 00:22:54;;;;;;;;;;;0.30;99.90;;;;;;5115387;27;19930;-84
2023/12/07 00:25:20;;;;;;;;;;;0.30;99.90;;;;;;5114936;27;19931;-85
2023/12/07 00:27:45;;;;;;;;;;;0.20;99.90;;;;;;5137992;27;19971;-87
2023/12/07 00:30:11;;;;;;;;;;;0.30;99.90;;;;;;5110915;27;19934;-85
2023/12/07 00:32:36;;;;;;;;;;;0.30;99.90;;;;;;5110849;27;19924;-83
2023/12/07 00:35:05;;;;;;;;;;;0.20;99.90;;;;;;5110714;27;19930;-84
2023/12/07 00:37:31;;;;;;;;;;;0.20;99.90;;;;;;5117138;27;19924;-87
2023/12/07 00:39:56;;;;;;;;;;;0.20;99.90;;;;;;5119489;27;19988;-84
2023/12/07 00:42:22;;;;;;;;;;;0.20;99.90;;;;;;5120376;27;19931;-83
2023/12/07 00:44:47;;;;;;;;;;;0.20;99.90;;;;;;5116337;27;19924;-84
2023/12/07 00:47:13;;;;;;;;;;;0.20;99.90;;;;;;5105169;28;19977;-83
2023/12/07 00:49:41;;;;;;;;;;;0.20;99.90;;;;;;5115354;28;19947;-84
2023/12/07 00:52:07;;;;;;;;;;;0.30;99.90;;;;;;5116418;27;19935;-84
2023/12/07 00:54:33;;;;;;;;;;;0.20;99.90;;;;;;5113567;27;20293;-86
2023/12/07 00:56:58;;;;;;;;;;;0.20;99.90;;;;;;5115963;27;20052;-83
2023/12/07 00:59:24;;;;;;;;;;;0.30;99.90;;;;;;5096292;27;20294;-84
2023/12/07 01:01:50;;;;;;;;;;;0.30;99.90;;;;;;5116653;27;20046;-84
2023/12/07 01:04:16;;;;;;;;;;;0.30;99.90;;;;;;5115050;28;20034;-84
2023/12/07 01:06:42;;;;;;;;;;;0.40;99.90;;;;;;5112790;28;19931;-84
2023/12/07 01:09:12;;;;;;;;;;;0.50;99.90;;;;;;5115911;27;20018;-84
2023/12/07 01:11:40;;;;;;;;;;;0.50;99.90;;;;;;5117497;28;20360;-84
2023/12/07 01:14:05;;;;;;;;;;;0.40;99.90;;;;;;5118136;27;19931;-85
2023/12/07 01:16:31;;;;;;;;;;;0.50;99.90;;;;;;5113474;27;19928;-85
2023/12/07 01:18:57;;;;;;;;;;;0.50;99.90;;;;;;5113330;27;19932;-84
2023/12/07 01:21:23;;;;;;;;;;;0.50;99.90;;;;;;5136608;27;19927;-84
2023/12/07 01:23:49;;;;;;;;;;;0.60;99.90;;;;;;5111927;27;19978;-85
2023/12/07 01:26:14;;;;;;;;;;;0.50;99.90;;;;;;5113705;27;19930;-84
2023/12/07 01:28:40;;;;;;;;;;;0.50;99.90;;;;;;5114537;28;19924;-85
2023/12/07 01:31:05;;;;;;;;;;;0.50;99.90;;;;;;5108850;27;19981;-86
2023/12/07 01:33:31;;;;;;;;;;;0.50;99.90;;;;;;5111577;27;19931;-84
2023/12/07 01:35:57;;;;;;;;;;;0.50;99.90;;;;;;5111404;27;19924;-84
2023/12/07 01:38:22;;;;;;;;;;;0.60;99.90;;;;;;5108584;27;19935;-84
2023/12/07 01:40:48;;;;;;;;;;;0.60;99.90;;;;;;5113321;27;19992;-83
2023/12/07 01:43:14;;;;;;;;;;;0.60;99.90;;;;;;5094829;28;20309;-85
2023/12/07 01:45:40;;;;;;;;;;;0.70;99.90;;;;;;5111880;27;19928;-85
2023/12/07 01:48:06;;;;;;;;;;;0.70;99.90;;;;;;5112150;27;20006;-84
2023/12/07 01:50:33;;;;;;;;;;;0.70;99.90;;;;;;5108311;28;19928;-85
2023/12/07 01:53:00;;;;;;;;;;;0.70;99.90;;;;;;5127241;27;20057;-84
2023/12/07 01:55:26;;;;;;;;;;;0.80;99.90;;;;;;5121390;27;19924;-83
2023/12/07 01:57:52;;;;;;;;;;;0.70;99.90;;;;;;5109802;28;19934;-84
2023/12/07 02:00:18;;;;;;;;;;;0.70;99.90;;;;;;5097976;28;20011;-85
2023/12/07 02:02:45;;;;;;;;;;;0.70;99.90;;;;;;5142624;27;19924;-85
2023/12/07 02:05:12;;;;;;;;;;;0.60;99.90;;;;;;5141185;27;20379;-84
2023/12/07 02:07:39;;;;;;;;;;;0.60;99.90;;;;;;5113833;28;19927;-84
2023/12/07 02:10:04;;;;;;;;;;;0.60;99.90;;;;;;5113629;28;19924;-84
2023/12/07 02:12:30;;;;;;;;;;;0.40;99.90;;;;;;5103641;28;19931;-84
2023/12/07 02:14:56;;;;;;;;;;;0.40;99.90;;;;;;5108262;27;19950;-84
2023/12/07 02:17:26;;;;;;;;;;;0.50;99.90;;;;;;5108282;28;19959;-84
2023/12/07 02:20:00;;;;;;;;;;;0.30;99.90;;;;;;5107166;28;20001;-85
2023/12/07 02:22:32;;;;;;;;;;;0.30;99.90;;;;;;5099893;28;19924;-84
2023/12/07 02:25:08;;;;;;;;;;;0.30;99.90;;;;;;5113256;27;19977;-85
2023/12/07 02:27:34;;;;;;;;;;;0.20;99.90;;;;;;5113228;27;19977;-85
2023/12/07 02:30:00;;;;;;;;;;;0.20;99.90;;;;;;5093313;28;20054;-84
2023/12/07 02:32:25;;;;;;;;;;;0.10;99.90;;;;;;5112582;28;20018;-84
2023/12/07 02:34:51;;;;;;;;;;;0.20;99.90;;;;;;5112240;27;19927;-84
2023/12/07 02:37:18;;;;;;;;;;;0.10;99.90;;;;;;5108546;27;19928;-84
2023/12/07 02:39:44;;;;;;;;;;;0.00;99.90;;;;;;5110220;27;19927;-84
2023/12/07 02:42:11;;;;;;;;;;;0.00;99.90;;;;;;5107060;28;19931;-87
2023/12/07 02:44:36;;;;;;;;;;;0.00;99.90;;;;;;5109038;27;20298;-85
2023/12/07 02:47:02;;;;;;;;;;;-0.10;99.90;;;;;;5111521;27;19930;-84
2023/12/07 02:49:27;;;;;;;;;;;-0.10;99.90;;;;;;5114135;28;20383;-88
2023/12/07 02:51:53;;;;;;;;;;;-0.10;99.90;;;;;;5095423;28;20394;-84
2023/12/07 02:54:18;;;;;;;;;;;-0.20;99.90;;;;;;5109154;28;19924;-84
2023/12/07 02:56:44;;;;;;;;;;;-0.20;99.90;;;;;;5110300;28;19969;-84
2023/12/07 02:59:10;;;;;;;;;;;-0.20;99.90;;;;;;5113181;28;19974;-84
2023/12/07 03:01:36;;;;;;;;;;;-0.20;99.90;;;;;;5094221;28;19976;-84
2023/12/07 03:04:01;;;;;;;;;;;-0.30;99.90;;;;;;5113089;28;20124;-84
2023/12/07 03:06:27;;;;;;;;;;;-0.30;99.90;;;;;;5107119;28;20026;-85
2023/12/07 03:08:52;;;;;;;;;;;-0.30;99.90;;;;;;5107437;28;19931;-84
2023/12/07 03:11:18;;;;;;;;;;;-0.30;99.90;;;;;;5112591;28;19955;-87
2023/12/07 03:13:43;;;;;;;;;;;-0.30;99.90;;;;;;5110279;28;19932;-85
2023/12/07 03:16:09;;;;;;;;;;;-0.40;99.90;;;;;;5108535;28;20057;-84
2023/12/07 03:18:36;;;;;;;;;;;-0.40;99.90;;;;;;5109621;28;19928;-84
2023/12/07 03:21:02;;;;;;;;;;;-0.40;99.90;;;;;;5089341;28;20039;-84
2023/12/07 03:23:28;;;;;;;;;;;-0.40;99.90;;;;;;5108767;28;19927;-85
2023/12/07 03:25:53;;;;;;;;;;;-0.40;99.90;;;;;;5110469;28;19938;-83
2023/12/07 03:28:19;;;;;;;;;;;-0.50;99.90;;;;;;5106161;27;19996;-84
2023/12/07 03:30:44;;;;;;;;;;;-0.50;99.90;;;;;;5113150;27;20397;-83
2023/12/07 03:33:10;;;;;;;;;;;-0.50;99.90;;;;;;5108842;28;19932;-85
2023/12/07 03:35:36;;;;;;;;;;;-0.50;99.90;;;;;;5115460;27;20431;-84
2023/12/07 03:38:02;;;;;;;;;;;-0.60;99.90;;;;;;5116886;27;19927;-85
2023/12/07 03:40:27;;;;;;;;;;;-0.50;99.90;;;;;;5115036;27;19959;-84
2023/12/07 03:42:53;;;;;;;;;;;-0.60;99.90;;;;;;5110823;27;19932;-83
2023/12/07 03:45:18;;;;;;;;;;;-0.60;99.90;;;;;;5109003;27;20590;-84
2023/12/07 03:47:44;;;;;;;;;;;-0.60;99.90;;;;;;5109945;28;19932;-83
2023/12/07 03:50:10;;;;;;;;;;;-0.70;99.90;;;;;;5115414;28;19928;-84
2023/12/07 03:52:35;;;;;;;;;;;-0.70;99.90;;;;;;5115977;28;20370;-83
2023/12/07 03:55:01;;;;;;;;;;;-0.70;99.90;;;;;;5149418;27;19927;-83
2023/12/07 03:57:27;;;;;;;;;;;-0.70;99.90;;;;;;5111500;27;19984;-84
2023/12/07 03:59:53;;;;;;;;;;;-0.70;99.90;;;;;;5116544;28;19927;-83
2023/12/07 04:02:19;;;;;;;;;;;-0.70;99.90;;;;;;5120940;28;19944;-84
2023/12/07 04:04:44;;;;;;;;;;;-0.60;99.90;;;;;;5118770;28;20010;-82
2023/12/07 04:07:10;;;;;;;;;;;-0.70;99.90;;;;;;5117304;28;19949;-83
2023/12/07 04:09:35;;;;;;;;;;;-0.60;99.90;;;;;;5111874;28;19924;-84
2023/12/07 04:12:01;;;;;;;;;;;-0.60;99.90;;;;;;5108175;28;19984;-83
2023/12/07 04:14:27;;;;;;;;;;;-0.60;99.90;;;;;;5107070;28;20401;-84
2023/12/07 04:16:53;;;;;;;;;;;-0.50;99.90;;;;;;5097005;28;19927;-85
2023/12/07 04:19:19;;;;;;;;;;;-0.50;99.90;;;;;;5111047;28;19928;-84
2023/12/07 04:21:44;;;;;;;;;;;-0.50;99.90;;;;;;5113685;27;19930;-84
2023/12/07 04:24:10;;;;;;;;;;;-0.50;99.90;;;;;;5108403;27;19924;-84
2023/12/07 04:26:35;;;;;;;;;;;-0.40;99.90;;;;;;5112401;27;19971;-83
2023/12/07 04:29:01;;;;;;;;;;;-0.30;99.90;;;;;;5115824;27;19934;-87
2023/12/07 04:31:26;;;;;;;;;;;-0.30;99.90;;;;;;5113718;27;19923;-85
2023/12/07 04:33:52;;;;;;;;;;;-0.30;99.90;;;;;;5115143;27;19931;-84
2023/12/07 04:36:18;;;;;;;;;;;-0.30;99.90;;;;;;5115940;27;19930;-84
2023/12/07 04:38:43;;;;;;;;;;;-0.30;99.90;;;;;;5112683;27;19928;-83
2023/12/07 04:41:09;;;;;;;;;;;-0.20;99.90;;;;;;5113850;27;20354;-84
2023/12/07 04:43:34;;;;;;;;;;;-0.20;99.90;;;;;;5109231;27;19924;-83
2023/12/07 04:46:00;;;;;;;;;;;-0.10;99.90;;;;;;5111684;27;19928;-83
2023/12/07 04:48:25;;;;;;;;;;;-0.10;99.90;;;;;;5114832;27;19969;-84
2023/12/07 04:50:52;;;;;;;;;;;0.00;99.90;;;;;;5116210;27;20596;-85
2023/12/07 04:53:17;;;;;;;;;;;0.00;99.90;;;;;;5116870;27;19977;-83
2023/12/07 04:55:47;;;;;;;;;;;-0.10;99.90;;;;;;5112062;27;20390;-83
2023/12/07 04:58:13;;;;;;;;;;;-0.10;99.90;;;;;;5115678;27;19931;-83
2023/12/07 05:00:38;;;;;;;;;;;-0.10;99.90;;;;;;5111945;27;19924;-83
2023/12/07 05:03:04;;;;;;;;;;;0.10;99.90;;;;;;5111870;27;19931;-84
2023/12/07 05:05:29;;;;;;;;;;;0.00;99.90;;;;;;5105694;27;19970;-85
2023/12/07 05:07:55;;;;;;;;;;;0.10;99.90;;;;;;5112128;27;19923;-83
2023/12/07 05:10:21;;;;;;;;;;;0.10;99.90;;;;;;5109081;27;19928;-84
2023/12/07 05:12:46;;;;;;;;;;;0.10;99.90;;;;;;5111000;28;20038;-84
2023/12/07 05:15:12;;;;;;;;;;;0.20;99.90;;;;;;5114858;28;19935;-84
2023/12/07 05:17:38;;;;;;;;;;;0.10;99.90;;;;;;5111172;28;19924;-83
2023/12/07 05:20:05;;;;;;;;;;;0.10;99.90;;;;;;5100436;27;19931;-84
2023/12/07 05:22:30;;;;;;;;;;;0.10;99.90;;;;;;5147067;27;19927;-84
2023/12/07 05:24:56;;;;;;;;;;;0.10;99.90;;;;;;5113312;28;19931;-85
2023/12/07 05:27:22;;;;;;;;;;;0.00;99.90;;;;;;5096541;28;19927;-84
2023/12/07 05:29:47;;;;;;;;;;;0.00;99.90;;;;;;5113613;27;19924;-84
2023/12/07 05:32:13;;;;;;;;;;;0.00;99.90;;;;;;5136171;27;19957;-84
2023/12/07 05:34:39;;;;;;;;;;;-0.10;99.90;;;;;;5091323;28;19924;-84
2023/12/07 05:37:04;;;;;;;;;;;-0.10;99.90;;;;;;5133563;27;19935;-84
2023/12/07 05:39:30;;;;;;;;;;;0.00;99.90;;;;;;5093281;28;20379;-83
2023/12/07 05:41:55;;;;;;;;;;;0.00;99.90;;;;;;5112904;27;19924;-84
2023/12/07 05:44:22;;;;;;;;;;;0.10;99.90;;;;;;5111985;27;19931;-85
2023/12/07 05:46:48;;;;;;;;;;;0.00;99.90;;;;;;5107431;27;19924;-84
2023/12/07 05:49:13;;;;;;;;;;;0.10;99.90;;;;;;5128409;27;19935;-84
2023/12/07 05:51:39;;;;;;;;;;;0.10;99.90;;;;;;5115427;27;19924;-84
2023/12/07 05:54:05;;;;;;;;;;;0.10;99.90;;;;;;5095926;28;19934;-83
2023/12/07 05:56:31;;;;;;;;;;;0.10;99.90;;;;;;5113677;28;20306;-84
2023/12/07 05:58:57;;;;;;;;;;;0.10;99.90;;;;;;5143696;27;19924;-84
2023/12/07 06:01:22;;;;;;;;;;;0.10;99.90;;;;;;5113539;28;19923;-83
2023/12/07 06:03:48;;;;;;;;;;;0.10;99.90;;;;;;5115605;27;19963;-84
2023/12/07 06:06:13;;;;;;;;;;;0.10;99.90;;;;;;5112099;28;19979;-84
2023/12/07 06:08:39;;;;;;;;;;;0.10;99.90;;;;;;5113110;28;19924;-83
2023/12/07 06:11:05;;;;;;;;;;;0.10;99.90;;;;;;5113806;28;20366;-84
2023/12/07 06:13:31;;;;;;;;;;;0.10;99.90;;;;;;5112122;28;19923;-84
2023/12/07 06:15:56;;;;;;;;;;;0.10;99.90;;;;;;5110774;28;20019;-85
2023/12/07 06:18:22;;;;;;;;;;;0.10;99.90;;;;;;5103600;28;20014;-86
2023/12/07 06:20:47;;;;;;;;;;;0.00;99.90;;;;;;5109921;27;20333;-84
2023/12/07 06:23:13;;;;;;;;;;;0.00;99.90;;;;;;5112788;27;19934;-84
2023/12/07 06:25:39;;;;;;;;;;;0.00;99.90;;;;;;5107804;27;19923;-84
2023/12/07 06:28:05;;;;;;;;;;;0.00;99.90;;;;;;5113972;27;19935;-85
2023/12/07 06:30:30;;;;;;;;;;;0.00;99.90;;;;;;5108259;27;19924;-84
2023/12/07 06:32:56;;;;;;;;;;;0.00;99.90;;;;;;5112621;27;19923;-83
2023/12/07 06:35:21;;;;;;;;;;;0.00;99.90;;;;;;5108786;28;19932;-85
2023/12/07 06:37:47;;;;;;;;;;;0.00;99.90;;;;;;5111097;28;20064;-84
2023/12/07 06:40:12;;;;;;;;;;;0.10;99.90;;;;;;5111827;27;19930;-85
2023/12/07 06:42:38;;;;;;;;;;;0.20;99.90;;;;;;5110381;27;20481;-84
2023/12/07 06:45:04;;;;;;;;;;;0.10;99.90;;;;;;5114000;27;20431;-84
2023/12/07 06:47:30;;;;;;;;;;;0.00;99.90;;;;;;5110984;28;20023;-84
2023/12/07 06:49:56;;;;;;;;;;;-0.10;99.90;;;;;;5113125;28;19931;-84
2023/12/07 06:52:21;;;;;;;;;;;-0.10;99.90;;;;;;5111193;28;19928;-83
2023/12/07 06:54:47;;;;;;;;;;;-0.10;99.90;;;;;;5112322;28;20018;-83
2023/12/07 06:57:13;;;;;;;;;;;-0.10;99.90;;;;;;5096283;28;19924;-84
2023/12/07 06:59:39;;;;;;;;;;;-0.20;99.90;;;;;;5112601;28;19971;-84
2023/12/07 07:02:04;;;;;;;;;;;-0.30;99.90;;;;;;5109993;28;19954;-84
2023/12/07 07:04:30;;;;;;;;;;;-0.30;99.90;;;;;;5110185;28;19928;-84
2023/12/07 07:06:55;;;;;;;;;;;-0.30;99.90;;;;;;5114022;27;20362;-84
2023/12/07 07:09:21;;;;;;;;;;;-0.30;99.90;;;;;;5116826;27;19931;-84
2023/12/07 07:11:50;;;;;;;;;;;-0.50;99.90;;;;;;5111936;27;20354;-85
2023/12/07 07:14:16;;;;;;;;;;;-0.50;99.90;;;;;;5117367;27;20291;-83
2023/12/07 07:16:41;;;;;;;;;;;-0.40;99.90;;;;;;5112142;27;19980;-84
2023/12/07 07:19:07;;;;;;;;;;;-0.60;99.90;;;;;;5105019;27;19977;-84
2023/12/07 07:21:32;;;;;;;;;;;-0.50;99.90;;;;;;5114960;27;19928;-84
2023/12/07 07:23:58;;;;;;;;;;;-0.60;99.90;;;;;;5112679;27;19927;-82
2023/12/07 07:26:25;;;;;;;;;;;-0.50;99.90;;;;;;5116850;27;20457;-85
2023/12/07 07:28:53;;;;;;;;;;;-0.60;99.90;;;;;;5119581;27;20366;-83
2023/12/07 07:31:19;;;;;;;;;;;-0.60;99.90;;;;;;5115386;27;19936;-85
2023/12/07 07:33:46;;;;;;;;;;;-0.60;99.90;;;;;;5114816;27;19924;-84
2023/12/07 07:36:12;;;;;;;;;;;-0.60;99.90;;;;;;5116087;27;19934;-84
2023/12/07 07:38:38;;;;;;;;;;;-0.60;99.90;;;;;;5095556;28;19983;-87
2023/12/07 07:41:04;;;;;;;;;;;-0.60;99.90;;;;;;5112498;27;20014;-84
2023/12/07 07:43:34;;;;;;;;;;;-0.50;99.90;;;;;;5110953;27;19928;-83
2023/12/07 07:45:59;;;;;;;;;;;-0.50;99.90;;;;;;5118518;27;19935;-84
2023/12/07 07:48:25;;;;;;;;;;;-0.50;99.90;;;;;;5086792;28;19931;-84
2023/12/07 07:50:51;;;;;;;;;;;-0.50;99.90;;;;;;5101974;28;20286;-84
2023/12/07 07:53:17;;;;;;;;;;;-0.50;99.90;;;;;;5116120;28;19924;-84
2023/12/07 07:55:42;;;;;;;;;;;-0.50;99.90;;;;;;5113057;27;19935;-85
2023/12/07 07:58:08;;;;;;;;;;;-0.50;99.90;;;;;;5112507;28;19931;-85
2023/12/07 08:00:34;;;;;;;;;;;-0.50;99.90;;;;;;5111354;27;19935;-86
2023/12/07 08:03:00;;;;;;;;;;;-0.50;99.90;;;;;;5118716;27;19954;-83
2023/12/07 08:05:25;;;;;;;;;;;-0.50;99.90;;;;;;5100805;28;20398;-83
2023/12/07 08:07:51;;;;;;;;;;;-0.50;99.90;;;;;;5114680;28;19939;-85
2023/12/07 08:10:17;;;;;;;;;;;-0.50;99.90;;;;;;5117500;28;20444;-82
2023/12/07 08:12:42;;;;;;;;;;;-0.40;99.90;;;;;;5111800;28;19934;-83
2023/12/07 08:15:10;;;;;;;;;;;-0.50;99.90;;;;;;5110743;28;19924;-84
2023/12/07 08:17:40;;;;;;;;;;;-0.50;99.90;;;;;;5116322;28;19977;-84
2023/12/07 08:20:12;;;;;;;;;;;-0.50;99.90;;;;;;5126808;27;19968;-83
2023/12/07 08:22:38;;;;;;;;;;;-0.40;99.90;;;;;;5110783;28;19931;-85
2023/12/07 08:25:05;;;;;;;;;;;-0.40;99.90;;;;;;5113996;28;19927;-84
2023/12/07 08:27:32;;;;;;;;;;;-0.40;99.90;;;;;;5110055;28;19949;-86
2023/12/07 08:29:57;;;;;;;;;;;-0.40;99.90;;;;;;5097313;28;19979;-84
2023/12/07 08:32:25;;;;;;;;;;;-0.30;99.90;;;;;;5136197;27;20416;-82
2023/12/07 08:34:51;;;;;;;;;;;-0.30;99.90;;;;;;5113254;28;19928;-82
2023/12/07 08:37:17;;;;;;;;;;;-0.30;99.90;;;;;;5114565;28;19924;-81
2023/12/07 08:39:42;;;;;;;;;;;-0.20;99.90;;;;;;5112817;28;19934;-83
2023/12/07 08:42:08;;;;;;;;;;;-0.10;99.90;;;;;;5114102;28;20370;-82
2023/12/07 08:44:34;;;;;;;;;;;-0.20;99.90;;;;;;5140929;27;19970;-83
2023/12/07 08:46:59;;;;;;;;;;;-0.10;99.90;;;;;;5112751;28;19924;-83
2023/12/07 08:49:25;;;;;;;;;;;-0.10;99.90;;;;;;5108720;28;19972;-83
2023/12/07 08:51:52;;;;;;;;;;;-0.20;99.90;;;;;;5114160;28;20294;-82
2023/12/07 08:54:18;;;;;;;;;;;-0.20;99.90;;;;;;5147059;27;19928;-82
2023/12/07 08:56:44;;;;;;;;;;;-0.20;99.90;;;;;;5113236;28;19970;-83
2023/12/07 08:59:10;;;;;;;;;;;-0.20;99.90;;;;;;5119911;28;19976;-82
2023/12/07 09:01:35;;;;;;;;;;;-0.30;99.90;;;;;;5113834;28;19927;-82
2023/12/07 09:04:01;;;;;;;;;;;-0.20;99.90;;;;;;5049275;28;1808359;-83
2023/12/07 09:06:27;;;;;;;;;;;-0.20;99.90;;;;;;5106275;28;20432;-83
2023/12/07 09:08:53;;;;;;;;;;;-0.20;99.90;;;;;;5112786;27;19924;-83
2023/12/07 09:11:18;;;;;;;;;;;-0.20;99.90;;;;;;5124928;27;19973;-83
2023/12/07 09:13:44;;;;;;;;;;;-0.20;99.90;;;;;;5120753;27;19923;-83
2023/12/07 09:16:09;;;;;;;;;;;-0.20;99.90;;;;;;5113650;28;19963;-83
2023/12/07 09:18:36;;;;;;;;;;;-0.10;99.90;;;;;;5114471;27;20421;-83
2023/12/07 09:21:02;;;;;;;;;;;-0.10;99.90;;;;;;5114581;28;20012;-83
2023/12/07 09:23:28;;;;;;;;;;;-0.10;99.90;;;;;;5103309;27;20080;-85
2023/12/07 09:25:54;;;;;;;;;;;-0.20;99.90;;;;;;5117974;27;20006;-83
2023/12/07 09:28:19;;;;;;;;;;;-0.10;99.90;;;;;;5114514;28;19931;-82
2023/12/07 09:30:45;;;;;;;;;;;-0.10;99.90;;;;;;5113067;28;19924;-83
2023/12/07 09:33:10;;;;;;;;;;;-0.10;99.90;;;;;;5114043;28;19924;-83
2023/12/07 09:35:36;;;;;;;;;;;-0.10;99.90;;;;;;5138768;27;19975;-83
2023/12/07 09:38:02;;;;;;;;;;;-0.10;99.90;;;;;;5114052;27;20018;-83
2023/12/07 09:40:28;;;;;;;;;;;-0.10;99.90;;;;;;5124861;27;19984;-84
2023/12/07 09:42:53;;;;;;;;;;;-0.10;99.90;;;;;;5113824;28;19953;-83
2023/12/07 09:45:20;;;;;;;;;;;-0.10;99.90;;;;;;5114086;28;19931;-83
2023/12/07 09:47:47;;;;;;;;;;;-0.10;99.90;;;;;;5105258;28;19962;-88
2023/12/07 09:50:15;;;;;;;;;;;-0.10;99.90;;;;;;5142014;27;19928;-83
2023/12/07 09:52:41;;;;;;;;;;;0.00;99.90;;;;;;5113757;28;19978;-83
2023/12/07 09:55:07;;;;;;;;;;;0.10;99.90;;;;;;5150293;27;20335;-84
2023/12/07 09:57:33;;;;;;;;;;;0.00;99.90;;;;;;5113838;28;19962;-83
2023/12/07 09:59:59;;;;;;;;;;;0.00;99.90;;;;;;5095995;28;20359;-84
2023/12/07 10:02:25;;;;;;;;;;;0.10;99.90;;;;;;5112908;28;19977;-83
2023/12/07 10:05:07;;;;;;;;;;;0.10;99.90;;;;;;5118937;27;20449;-83
2023/12/07 10:07:34;;;;;;;;;;;0.10;99.90;;;;;;5115194;27;19935;-83
2023/12/07 10:10:00;;;;;;;;;;;0.20;99.90;;;;;;5129941;27;19970;-83
2023/12/07 10:12:25;;;;;;;;;;;0.20;99.90;;;;;;5125711;27;19974;-83
2023/12/07 10:14:51;;;;;;;;;;;0.20;99.90;;;;;;5114856;27;20048;-84
2023/12/07 10:17:16;;;;;;;;;;;0.30;99.90;;;;;;5114240;27;20357;-83
2023/12/07 10:19:42;;;;;;;;;;;0.30;99.90;;;;;;5107123;28;19932;-83
2023/12/07 10:22:15;;;;;;;;;;;0.30;99.90;;;;;;5103929;27;19928;-82
2023/12/07 10:24:41;;;;;;;;;;;0.30;99.90;;;;;;5109265;28;19931;-83
2023/12/07 10:27:06;;;;;;;;;;;0.30;99.90;;;;;;5105528;28;20314;-83
2023/12/07 10:29:35;;;;;;;;;;;0.30;99.90;;;;;;5112281;28;19934;-83
2023/12/07 10:32:02;;;;;;;;;;;0.40;99.90;;;;;;5112239;28;20039;-84
2023/12/07 10:34:28;;;;;;;;;;;0.40;99.90;;;;;;5113543;28;20019;-84
2023/12/07 10:36:55;;;;;;;;;;;0.50;99.90;;;;;;5112518;28;20386;-83
2023/12/07 10:39:24;;;;;;;;;;;0.50;99.90;;;;;;5113442;28;19976;-82
2023/12/07 10:41:52;;;;;;;;;;;0.50;99.90;;;;;;5111940;28;20022;-84
2023/12/07 10:44:18;;;;;;;;;;;0.50;99.90;;;;;;5113939;27;19978;-84
2023/12/07 10:46:44;;;;;;;;;;;0.60;99.90;;;;;;5116460;27;19990;-83
2023/12/07 10:49:13;;;;;;;;;;;0.60;99.90;;;;;;5099895;28;19934;-83
2023/12/07 10:51:49;;;;;;;;;;;0.60;99.90;;;;;;5152070;27;19971;-86
2023/12/07 10:54:16;;;;;;;;;;;0.60;99.90;;;;;;5117623;28;20006;-85
2023/12/07 10:56:45;;;;;;;;;;;0.60;99.90;;;;;;5149642;27;19927;-84
2023/12/07 10:59:11;;;;;;;;;;;0.60;99.90;;;;;;5105774;28;19930;-84
2023/12/07 11:01:38;;;;;;;;;;;0.60;99.90;;;;;;5112289;28;19946;-84
2023/12/07 11:04:05;;;;;;;;;;;0.60;99.90;;;;;;5131355;27;20059;-85
2023/12/07 11:06:31;;;;;;;;;;;0.60;99.90;;;;;;5117466;28;19931;-84
2023/12/07 11:08:58;;;;;;;;;;;0.50;99.90;;;;;;5113264;28;19924;-84
2023/12/07 11:11:42;;;;;;;;;;;0.50;99.90;;;;;;5112693;28;20421;-84
2023/12/07 11:14:12;;;;;;;;;;;0.60;99.90;;;;;;5120178;28;19930;-83
2023/12/07 11:16:40;;;;;;;;;;;0.80;99.90;;;;;;5114158;28;19928;-84
2023/12/07 11:19:26;;;;;;;;;;;0.70;99.90;;;;;;5112510;28;20010;-84
2023/12/07 11:21:51;;;;;;;;;;;0.70;99.90;;;;;;5094841;28;19928;-83
2023/12/07 11:24:17;;;;;;;;;;;0.70;99.90;;;;;;5112737;28;19930;-84
2023/12/07 11:26:44;;;;;;;;;;;0.70;99.90;;;;;;5104358;28;19928;-83
2023/12/07 11:29:10;;;;;;;;;;;0.80;99.90;;;;;;5104935;28;19937;-84
2023/12/07 11:31:36;;;;;;;;;;;0.70;99.90;;;;;;5112551;28;19928;-84
2023/12/07 11:34:13;;;;;;;;;;;0.80;99.90;;;;;;5095510;28;19981;-84
2023/12/07 11:36:39;;;;;;;;;;;0.80;99.90;;;;;;5094612;28;19931;-84
2023/12/07 11:39:08;;;;;;;;;;;0.80;99.90;;;;;;5111032;28;19924;-83
2023/12/07 11:41:43;;;;;;;;;;;0.80;99.90;;;;;;5112272;28;20344;-85
2023/12/07 11:44:09;;;;;;;;;;;0.70;99.90;;;;;;5119197;28;19924;-82
2023/12/07 11:46:37;;;;;;;;;;;0.80;99.90;;;;;;5101342;27;19924;-84
2023/12/07 11:49:03;;;;;;;;;;;0.80;99.90;;;;;;5126067;27;19928;-84
2023/12/07 11:51:29;;;;;;;;;;;0.80;99.90;;;;;;5089470;28;19924;-84
2023/12/07 11:53:55;;;;;;;;;;;0.90;99.90;;;;;;5116293;28;19927;-84
2023/12/07 11:56:21;;;;;;;;;;;0.90;99.90;;;;;;5098521;28;20014;-84
2023/12/07 11:58:47;;;;;;;;;;;0.90;99.90;;;;;;5116249;27;19924;-83
2023/12/07 12:01:12;;;;;;;;;;;0.90;99.90;;;;;;5114455;28;20291;-83
2023/12/07 12:03:38;;;;;;;;;;;0.90;99.90;;;;;;5112927;28;20374;-83
2023/12/07 12:06:05;;;;;;;;;;;1.00;99.90;;;;;;5114630;28;19927;-84
2023/12/07 12:08:31;;;;;;;;;;;1.00;99.90;;;;;;5114761;28;19923;-84
2023/12/07 12:10:57;;;;;;;;;;;1.00;99.90;;;;;;5112239;28;20374;-84
2023/12/07 12:13:29;;;;;;;;;;;1.10;99.90;;;;;;5105237;28;19928;-84
2023/12/07 12:15:58;;;;;;;;;;;1.10;99.90;;;;;;5127591;27;19935;-84
2023/12/07 12:18:26;;;;;;;;;;;1.10;99.90;;;;;;5094598;28;20042;-85
2023/12/07 12:20:51;;;;;;;;;;;1.10;99.90;;;;;;5110167;28;19928;-84
2023/12/07 12:23:17;;;;;;;;;;;1.10;99.90;;;;;;5115480;28;19930;-83
2023/12/07 12:25:43;;;;;;;;;;;1.10;99.90;;;;;;5115187;28;20324;-84
2023/12/07 12:28:09;;;;;;;;;;;1.10;99.90;;;;;;5136138;27;20465;-84
2023/12/07 12:30:35;;;;;;;;;;;1.10;99.90;;;;;;5117396;28;19935;-84
2023/12/07 12:33:00;;;;;;;;;;;1.20;99.90;;;;;;5102873;28;20295;-83
2023/12/07 12:35:26;;;;;;;;;;;1.20;99.90;;;;;;5108570;28;19988;-84
2023/12/07 12:37:52;;;;;;;;;;;1.20;99.90;;;;;;5117520;28;19935;-84
2023/12/07 12:40:18;;;;;;;;;;;1.20;99.90;;;;;;5103392;28;19959;-84
2023/12/07 12:42:48;;;;;;;;;;;1.20;99.90;;;;;;5114683;28;19930;-84
2023/12/07 12:45:14;;;;;;;;;;;1.20;99.90;;;;;;5101110;28;19923;-83
2023/12/07 12:47:45;;;;;;;;;;;1.20;99.90;;;;;;5110207;28;19924;-84
2023/12/07 12:50:12;;;;;;;;;;;1.20;99.90;;;;;;5114994;28;20302;-84
2023/12/07 12:52:39;;;;;;;;;;;1.30;99.90;;;;;;5101771;28;19928;-83
2023/12/07 12:55:10;;;;;;;;;;;1.30;99.90;;;;;;5114435;28;20010;-83
2023/12/07 12:57:36;;;;;;;;;;;1.30;99.90;;;;;;5114968;28;19927;-83
2023/12/07 13:00:02;;;;;;;;;;;1.30;99.90;;;;;;5114056;28;19928;-81
2023/12/07 13:02:27;;;;;;;;;;;1.30;99.90;;;;;;5114095;28;20408;-84
2023/12/07 13:04:53;;;;;;;;;;;1.40;99.90;;;;;;5113759;28;19924;-84
2023/12/07 13:07:19;;;;;;;;;;;1.40;99.90;;;;;;5100685;28;19928;-83
2023/12/07 13:09:45;;;;;;;;;;;1.40;99.90;;;;;;5112938;28;19946;-83
2023/12/07 13:12:10;;;;;;;;;;;1.40;99.90;;;;;;5114559;28;20374;-84
2023/12/07 13:14:38;;;;;;;;;;;1.40;99.90;;;;;;5114770;28;19930;-83
2023/12/07 13:17:04;;;;;;;;;;;1.50;99.90;;;;;;5114952;28;20040;-83
2023/12/07 13:19:29;;;;;;;;;;;1.50;99.90;;;;;;5105509;28;19923;-84
2023/12/07 13:21:55;;;;;;;;;;;1.50;99.90;;;;;;5112904;28;20390;-84
2023/12/07 13:24:21;;;;;;;;;;;1.50;99.90;;;;;;5115304;27;19929;-86
2023/12/07 13:26:47;;;;;;;;;;;1.70;99.90;;;;;;5100211;27;20344;-84
2023/12/07 13:29:13;;;;;;;;;;;1.60;99.90;;;;;;5113429;28;19987;-83
2023/12/07 13:31:38;;;;;;;;;;;1.60;99.90;;;;;;5104656;28;19932;-82
2023/12/07 13:34:04;;;;;;;;;;;1.60;99.90;;;;;;5115327;28;19924;-84
2023/12/07 13:36:31;;;;;;;;;;;1.60;99.90;;;;;;5109624;27;19931;-84
2023/12/07 13:38:57;;;;;;;;;;;1.60;99.90;;;;;;5114576;28;19924;-84
2023/12/07 13:41:23;;;;;;;;;;;1.70;99.90;;;;;;5108335;28;19969;-84
2023/12/07 13:43:50;;;;;;;;;;;1.70;99.90;;;;;;5114239;27;19989;-84
2023/12/07 13:46:16;;;;;;;;;;;1.60;99.90;;;;;;5113282;28;19930;-85
2023/12/07 13:48:42;;;;;;;;;;;1.70;99.90;;;;;;5147365;27;20310;-84
2023/12/07 13:51:08;;;;;;;;;;;1.80;99.90;;;;;;5113134;28;19924;-85
2023/12/07 13:53:34;;;;;;;;;;;1.80;99.90;;;;;;5103872;28;19924;-84
2023/12/07 13:56:00;;;;;;;;;;;1.80;99.90;;;;;;5114331;28;20014;-82
2023/12/07 13:58:25;;;;;;;;;;;1.90;99.90;;;;;;5113080;28;19967;-82
2023/12/07 14:00:51;;;;;;;;;;;1.90;99.90;;;;;;5111822;28;20009;-82
2023/12/07 14:03:16;;;;;;;;;;;1.90;99.90;;;;;;5120380;27;20404;-82
2023/12/07 14:05:42;;;;;;;;;;;2.00;99.90;;;;;;5117487;27;20022;-82
2023/12/07 14:08:08;;;;;;;;;;;1.90;99.90;;;;;;5113199;28;19928;-82
2023/12/07 14:10:34;;;;;;;;;;;2.00;99.90;;;;;;5112534;28;19924;-82
2023/12/07 14:13:00;;;;;;;;;;;2.00;99.90;;;;;;5116293;27;19923;-82
2023/12/07 14:15:25;;;;;;;;;;;2.10;99.90;;;;;;5125510;27;20036;-79
2023/12/07 14:17:51;;;;;;;;;;;2.00;99.90;;;;;;5119764;28;19927;-82
2023/12/07 14:20:17;;;;;;;;;;;2.10;99.90;;;;;;5117966;28;19987;-82